MSC Ludovica — HPAF — position and weather

sailwx.info

Track history (hours):
 
Tides and Currents Weather Stations Pressure Air Temp Water Temp Dewpoint Dewpoint Depression Visibility Wind Speed Wind Dir Waves Ship Positions

MSC Ludovica

Last reported at 2014-Oct-01 19:33 UTC. Time now 2014-Oct-01 20:31 UTC.
Position N 37°48' W 008°52'.

Length 301 m; draft 11 m.

Type: Ship. MMSI: 351248000.

Date/timePositionNaut miles runAvg speedWind from/ knotsBaromVisibWave heightAir tempDewpointWater temp
2014-Oct-01 19:33N 37°48' W 008°52'1 0.6
2014-Oct-01 18:33N 37°49' W 008°53'1 0.9
2014-Oct-01 17:33N 37°50' W 008°53'1 0.9
2014-Oct-01 16:33N 37°50' W 008°54'4 3.7
2014-Oct-01 15:33N 37°47' W 008°56'1111.2
2014-Oct-01 14:33N 37°36' W 009°01'1211.8
2014-Oct-01 13:33N 37°26' W 009°08'1211.7
2014-Oct-01 12:33N 37°15' W 009°15'1212.0
2014-Oct-01 11:33N 37°05' W 009°22'3511.6
2014-Oct-01 08:33N 36°40' W 008°50'1919.1
2014-Oct-01 07:33N 36°35' W 008°27'1312.6
2014-Oct-01 06:32N 36°31' W 008°12'13212.8
2014-Sep-30 20:14N 35°58' W 005°34'912.6
2014-Sep-30 19:34N 36°01' W 005°24'43018.6
2014-Sep-29 20:24N 37°04' E 003°26'1719.8
2014-Sep-29 19:33N 37°07' E 003°47'49819.1
2014-Sep-28 17:33N 36°35' E 014°07'1918.8
2014-Sep-28 16:34N 36°31' E 014°30'43518.8
2014-Sep-27 17:25N 36°37' E 023°32'1820.8
2014-Sep-27 16:34N 36°51' E 023°47'2020.5
2014-Sep-27 15:34N 37°08' E 024°00'2020.0
2014-Sep-27 14:33N 37°25' E 024°14'2019.6
2014-Sep-27 13:34N 37°39' E 024°31'3919.5
2014-Sep-27 11:34N 38°14' E 024°53'  
2014-Sep-22 21:32N 40°25' E 029°05'2311.9
2014-Sep-22 19:33N 40°39' E 028°41'1817.7
2014-Sep-22 18:33N 40°57' E 028°41'  
Track history (hours):
 
Tides and Currents Weather Stations Pressure Air Temp Water Temp Dewpoint Dewpoint Depression Visibility Wind Speed Wind Dir Waves Ship Positions

MSC Ludovica

Last reported at 2014-Oct-01 19:33 UTC. Time now 2014-Oct-01 20:31 UTC.
Position N 37°48' W 008°52'.

Length 301 m; draft 11 m.

Type: Ship. MMSI: 351248000.

Date/timePositionNaut miles runAvg speedWind from/ knotsBaromVisibWave heightAir tempDewpointWater temp
2014-Oct-01 19:33N 37°48' W 008°52'1 0.6
2014-Oct-01 18:33N 37°49' W 008°53'1 0.9
2014-Oct-01 17:33N 37°50' W 008°53'1 0.9
2014-Oct-01 16:33N 37°50' W 008°54'4 3.7
2014-Oct-01 15:33N 37°47' W 008°56'1111.2
2014-Oct-01 14:33N 37°36' W 009°01'1211.8
2014-Oct-01 13:33N 37°26' W 009°08'1211.7
2014-Oct-01 12:33N 37°15' W 009°15'1212.0
2014-Oct-01 11:33N 37°05' W 009°22'3511.6
2014-Oct-01 08:33N 36°40' W 008°50'1919.1
2014-Oct-01 07:33N 36°35' W 008°27'1312.6
2014-Oct-01 06:32N 36°31' W 008°12'13212.8
2014-Sep-30 20:14N 35°58' W 005°34'912.6
2014-Sep-30 19:34N 36°01' W 005°24'43018.6
2014-Sep-29 20:24N 37°04' E 003°26'1719.8
2014-Sep-29 19:33N 37°07' E 003°47'49819.1
2014-Sep-28 17:33N 36°35' E 014°07'1918.8
2014-Sep-28 16:34N 36°31' E 014°30'43518.8
2014-Sep-27 17:25N 36°37' E 023°32'1820.8
2014-Sep-27 16:34N 36°51' E 023°47'2020.5
2014-Sep-27 15:34N 37°08' E 024°00'2020.0
2014-Sep-27 14:33N 37°25' E 024°14'2019.6
2014-Sep-27 13:34N 37°39' E 024°31'3919.5
2014-Sep-27 11:34N 38°14' E 024°53'  
2014-Sep-22 21:32N 40°25' E 029°05'2311.9
2014-Sep-22 19:33N 40°39' E 028°41'1817.7
2014-Sep-22 18:33N 40°57' E 028°41'  

Dump ship's entire track history